SCCY/GXQ METAR and TAF weather

Enter ICAO airport designator
Station Type Date Time Source
SCCY METAR 2019/04/25 18:00 UTC NOAA

SCCY 251800Z 21003KT 150V240 CAVOK 12/03 Q1018


Station Type Date Time Source
SCCY Decoded METAR 2019/04/25 18:00 UTC NOAA

Coyhaique, Chile (SCCY) 45-35S 072-07W
Apr 25, 2019 - 02:00 PM EDT / 2019.04.25 1800 UTC
Wind: from the SSW (210 degrees) at 3 MPH (3 KT) (direction variable):0
Visibility: greater than 7 mile(s):0
Temperature: 53 F (12 C)
Dew Point: 37 F (3 C)
Relative Humidity: 54%
Pressure (altimeter): 30.06 in. Hg (1018 hPa)
ob: SCCY 251800Z 21003KT 150V240 CAVOK 12/03 Q1018
cycle: 18

Station Type Date Time Source
SCCY TAF 2019/04/25 12:00 UTC NOAA

TAF COR SCCY 251059Z 2512/2600 VRB02KT CAVOK TNM02/2512Z TX16/2519Z

Example: see airport list